sensor_id;sensor_type;location;lat;lon;timestamp;pressure;altitude;pressure_sealevel;temperature;humidity
39177;BME280;24904;52.208;21.192;2024-02-16T00:00:36;101193.29;;;8.06;70.37
39177;BME280;24904;52.208;21.192;2024-02-16T00:05:39;101190.73;;;8.07;70.18
39177;BME280;24904;52.208;21.192;2024-02-16T00:10:42;101194.52;;;8.08;70.41
39177;BME280;24904;52.208;21.192;2024-02-16T00:15:46;101184.92;;;8.06;70.29
39177;BME280;24904;52.208;21.192;2024-02-16T00:20:49;101191.02;;;8.05;70.51
39177;BME280;24904;52.208;21.192;2024-02-16T00:25:52;101192.08;;;8.07;70.39
39177;BME280;24904;52.208;21.192;2024-02-16T00:30:55;101190.76;;;8.05;70.34
39177;BME280;24904;52.208;21.192;2024-02-16T00:35:58;101190.91;;;8.02;70.34
39177;BME280;24904;52.208;21.192;2024-02-16T00:41:01;101191.33;;;8.01;70.54
39177;BME280;24904;52.208;21.192;2024-02-16T00:46:04;101192.71;;;8.02;70.30
39177;BME280;24904;52.208;21.192;2024-02-16T00:51:07;101190.41;;;8.04;70.40
39177;BME280;24904;52.208;21.192;2024-02-16T00:56:10;101191.15;;;8.04;70.19
39177;BME280;24904;52.208;21.192;2024-02-16T01:01:13;101184.17;;;8.04;70.26
39177;BME280;24904;52.208;21.192;2024-02-16T01:06:17;101177.17;;;8.05;70.18
39177;BME280;24904;52.208;21.192;2024-02-16T01:11:20;101176.27;;;8.04;70.19
39177;BME280;24904;52.208;21.192;2024-02-16T01:16:23;101161.88;;;8.01;70.10
39177;BME280;24904;52.208;21.192;2024-02-16T01:21:27;101161.95;;;8.03;70.11
39177;BME280;24904;52.208;21.192;2024-02-16T01:26:30;101154.42;;;8.02;69.84
39177;BME280;24904;52.208;21.192;2024-02-16T01:31:33;101148.74;;;8.03;69.76
39177;BME280;24904;52.208;21.192;2024-02-16T01:36:39;101141.84;;;7.98;69.62
39177;BME280;24904;52.208;21.192;2024-02-16T01:41:42;101141.64;;;7.94;69.76
39177;BME280;24904;52.208;21.192;2024-02-16T01:46:45;101133.91;;;7.92;69.67
39177;BME280;24904;52.208;21.192;2024-02-16T01:51:48;101130.81;;;7.87;69.21
39177;BME280;24904;52.208;21.192;2024-02-16T01:56:51;101135.32;;;7.84;69.32
39177;BME280;24904;52.208;21.192;2024-02-16T02:01:54;101130.44;;;7.83;69.41
39177;BME280;24904;52.208;21.192;2024-02-16T02:06:57;101126.52;;;7.80;69.34
39177;BME280;24904;52.208;21.192;2024-02-16T02:12:00;101128.59;;;7.76;69.24
39177;BME280;24904;52.208;21.192;2024-02-16T02:17:03;101128.79;;;7.73;69.30
39177;BME280;24904;52.208;21.192;2024-02-16T02:22:12;101129.98;;;7.71;69.14
39177;BME280;24904;52.208;21.192;2024-02-16T02:27:16;101124.98;;;7.69;69.09
39177;BME280;24904;52.208;21.192;2024-02-16T02:32:19;101114.60;;;7.66;68.82
39177;BME280;24904;52.208;21.192;2024-02-16T02:37:22;101116.73;;;7.63;68.87
39177;BME280;24904;52.208;21.192;2024-02-16T02:42:25;101114.17;;;7.64;68.64
39177;BME280;24904;52.208;21.192;2024-02-16T02:47:28;101111.33;;;7.60;68.71
39177;BME280;24904;52.208;21.192;2024-02-16T02:52:31;101110.58;;;7.55;68.65
39177;BME280;24904;52.208;21.192;2024-02-16T02:57:34;101114.56;;;7.48;68.60
39177;BME280;24904;52.208;21.192;2024-02-16T03:02:37;101118.81;;;7.40;68.42
39177;BME280;24904;52.208;21.192;2024-02-16T03:07:41;101122.83;;;7.34;68.76
39177;BME280;24904;52.208;21.192;2024-02-16T03:12:44;101120.74;;;7.31;68.79
39177;BME280;24904;52.208;21.192;2024-02-16T03:17:47;101125.13;;;7.25;68.55
39177;BME280;24904;52.208;21.192;2024-02-16T03:22:50;101130.41;;;7.20;68.75
39177;BME280;24904;52.208;21.192;2024-02-16T03:27:53;101131.05;;;7.14;68.70
39177;BME280;24904;52.208;21.192;2024-02-16T03:32:56;101136.36;;;7.10;68.84
39177;BME280;24904;52.208;21.192;2024-02-16T03:38:00;101134.45;;;7.05;68.89
39177;BME280;24904;52.208;21.192;2024-02-16T03:43:03;101133.32;;;7.00;69.00
39177;BME280;24904;52.208;21.192;2024-02-16T03:48:07;101138.93;;;6.98;69.06
39177;BME280;24904;52.208;21.192;2024-02-16T03:53:12;101136.33;;;6.95;69.04
39177;BME280;24904;52.208;21.192;2024-02-16T03:58:15;101132.63;;;6.90;69.04
39177;BME280;24904;52.208;21.192;2024-02-16T04:03:18;101129.65;;;6.88;69.06
39177;BME280;24904;52.208;21.192;2024-02-16T04:08:21;101124.67;;;6.83;68.96
39177;BME280;24904;52.208;21.192;2024-02-16T04:13:24;101125.10;;;6.78;69.00
39177;BME280;24904;52.208;21.192;2024-02-16T04:18:27;101127.75;;;6.70;69.05
39177;BME280;24904;52.208;21.192;2024-02-16T04:23:30;101129.40;;;6.64;68.98
39177;BME280;24904;52.208;21.192;2024-02-16T04:28:33;101133.87;;;6.60;69.04
39177;BME280;24904;52.208;21.192;2024-02-16T04:33:36;101138.85;;;6.55;69.09
39177;BME280;24904;52.208;21.192;2024-02-16T04:38:39;101136.41;;;6.54;68.97
39177;BME280;24904;52.208;21.192;2024-02-16T04:43:42;101136.13;;;6.47;69.09
39177;BME280;24904;52.208;21.192;2024-02-16T04:48:45;101132.60;;;6.41;69.10
39177;BME280;24904;52.208;21.192;2024-02-16T04:53:48;101130.48;;;6.38;69.21
39177;BME280;24904;52.208;21.192;2024-02-16T04:58:51;101126.94;;;6.33;68.93
39177;BME280;24904;52.208;21.192;2024-02-16T05:03:54;101124.68;;;6.28;68.93
39177;BME280;24904;52.208;21.192;2024-02-16T05:08:59;101118.73;;;6.25;69.08
39177;BME280;24904;52.208;21.192;2024-02-16T05:14:02;101115.48;;;6.21;69.11
39177;BME280;24904;52.208;21.192;2024-02-16T05:19:05;101119.77;;;6.17;69.14
39177;BME280;24904;52.208;21.192;2024-02-16T05:24:08;101119.92;;;6.14;69.02
39177;BME280;24904;52.208;21.192;2024-02-16T05:38:08;101120.17;;;6.11;69.04
39177;BME280;24904;52.208;21.192;2024-02-16T05:43:23;101128.96;;;6.09;68.91
39177;BME280;24904;52.208;21.192;2024-02-16T05:48:26;101128.44;;;6.07;69.17
39177;BME280;24904;52.208;21.192;2024-02-16T05:53:32;101134.85;;;6.04;69.27
39177;BME280;24904;52.208;21.192;2024-02-16T05:58:35;101143.23;;;6.04;69.19
39177;BME280;24904;52.208;21.192;2024-02-16T06:03:40;101150.83;;;6.03;69.29
39177;BME280;24904;52.208;21.192;2024-02-16T06:08:43;101150.33;;;5.98;69.27
39177;BME280;24904;52.208;21.192;2024-02-16T06:13:46;101146.82;;;5.96;69.30
39177;BME280;24904;52.208;21.192;2024-02-16T06:18:49;101151.83;;;5.94;69.32
39177;BME280;24904;52.208;21.192;2024-02-16T06:23:52;101159.38;;;5.98;69.29
39177;BME280;24904;52.208;21.192;2024-02-16T06:28:55;101165.42;;;6.00;69.45
39177;BME280;24904;52.208;21.192;2024-02-16T06:33:58;101171.38;;;6.03;69.37
39177;BME280;24904;52.208;21.192;2024-02-16T06:39:01;101179.75;;;6.07;69.34
39177;BME280;24904;52.208;21.192;2024-02-16T06:44:06;101176.35;;;6.13;69.21
39177;BME280;24904;52.208;21.192;2024-02-16T06:49:09;101178.39;;;6.19;69.13
39177;BME280;24904;52.208;21.192;2024-02-16T06:54:12;101178.59;;;6.26;69.04
39177;BME280;24904;52.208;21.192;2024-02-16T06:59:16;101185.10;;;6.33;69.14
39177;BME280;24904;52.208;21.192;2024-02-16T07:04:19;101191.04;;;6.42;69.04
39177;BME280;24904;52.208;21.192;2024-02-16T07:09:22;101185.35;;;6.54;68.78
39177;BME280;24904;52.208;21.192;2024-02-16T07:14:25;101186.45;;;6.62;68.56
39177;BME280;24904;52.208;21.192;2024-02-16T07:19:28;101191.32;;;6.71;68.47
39177;BME280;24904;52.208;21.192;2024-02-16T07:24:31;101194.25;;;6.81;68.28
39177;BME280;24904;52.208;21.192;2024-02-16T07:29:35;101194.16;;;6.91;68.04
39177;BME280;24904;52.208;21.192;2024-02-16T07:34:38;101199.08;;;7.01;67.88
39177;BME280;24904;52.208;21.192;2024-02-16T07:39:41;101206.63;;;7.11;67.54
39177;BME280;24904;52.208;21.192;2024-02-16T07:44:44;101203.51;;;7.21;67.34
39177;BME280;24904;52.208;21.192;2024-02-16T07:49:47;101201.65;;;7.32;67.17
39177;BME280;24904;52.208;21.192;2024-02-16T07:54:50;101198.24;;;7.39;66.94
39177;BME280;24904;52.208;21.192;2024-02-16T07:59:53;101199.46;;;7.49;66.71
39177;BME280;24904;52.208;21.192;2024-02-16T08:04:56;101203.04;;;7.57;66.42
39177;BME280;24904;52.208;21.192;2024-02-16T08:14:46;101191.21;;;7.78;66.10
39177;BME280;24904;52.208;21.192;2024-02-16T08:19:53;101192.42;;;7.95;66.03
39177;BME280;24904;52.208;21.192;2024-02-16T08:24:56;101195.69;;;8.12;65.65
39177;BME280;24904;52.208;21.192;2024-02-16T08:29:59;101187.89;;;8.24;65.57
39177;BME280;24904;52.208;21.192;2024-02-16T08:35:05;101187.14;;;8.41;65.23
39177;BME280;24904;52.208;21.192;2024-02-16T08:40:12;101183.59;;;8.57;65.03
39177;BME280;24904;52.208;21.192;2024-02-16T08:45:16;101186.16;;;8.74;65.04
39177;BME280;24904;52.208;21.192;2024-02-16T08:50:20;101186.86;;;8.83;64.30
39177;BME280;24904;52.208;21.192;2024-02-16T08:55:23;101193.09;;;8.92;64.11
39177;BME280;24904;52.208;21.192;2024-02-16T09:00:25;101186.86;;;9.02;63.76
39177;BME280;24904;52.208;21.192;2024-02-16T09:05:29;101179.60;;;9.15;63.58
39177;BME280;24904;52.208;21.192;2024-02-16T09:18:58;101177.30;;;9.57;63.09
39177;BME280;24904;52.208;21.192;2024-02-16T09:24:02;101173.80;;;9.75;62.85
39177;BME280;24904;52.208;21.192;2024-02-16T09:29:06;101168.73;;;9.88;62.25
39177;BME280;24904;52.208;21.192;2024-02-16T09:34:09;101166.00;;;10.03;62.25
39177;BME280;24904;52.208;21.192;2024-02-16T09:39:12;101163.77;;;10.18;61.96
39177;BME280;24904;52.208;21.192;2024-02-16T09:44:16;101162.46;;;10.26;61.64
39177;BME280;24904;52.208;21.192;2024-02-16T09:49:19;101155.47;;;10.38;61.50
39177;BME280;24904;52.208;21.192;2024-02-16T09:54:22;101156.77;;;10.51;61.01
39177;BME280;24904;52.208;21.192;2024-02-16T09:59:25;101152.95;;;10.61;60.86
39177;BME280;24904;52.208;21.192;2024-02-16T10:04:28;101142.81;;;10.70;60.71
39177;BME280;24904;52.208;21.192;2024-02-16T10:09:32;101133.11;;;10.82;60.54
39177;BME280;24904;52.208;21.192;2024-02-16T10:14:35;101138.98;;;10.95;60.25
39177;BME280;24904;52.208;21.192;2024-02-16T10:19:38;101134.27;;;11.03;60.18
39177;BME280;24904;52.208;21.192;2024-02-16T10:24:42;101132.71;;;11.15;60.01
39177;BME280;24904;52.208;21.192;2024-02-16T10:29:47;101130.27;;;11.25;59.84
39177;BME280;24904;52.208;21.192;2024-02-16T10:34:52;101124.77;;;11.33;59.60
39177;BME280;24904;52.208;21.192;2024-02-16T10:39:57;101115.58;;;11.42;59.65
39177;BME280;24904;52.208;21.192;2024-02-16T10:45:02;101106.20;;;11.52;59.67
39177;BME280;24904;52.208;21.192;2024-02-16T10:50:07;101098.42;;;11.65;59.55
39177;BME280;24904;52.208;21.192;2024-02-16T10:55:12;101092.67;;;11.74;58.99
39177;BME280;24904;52.208;21.192;2024-02-16T11:00:17;101087.16;;;11.84;59.03
39177;BME280;24904;52.208;21.192;2024-02-16T11:05:34;101077.23;;;11.92;58.95
39177;BME280;24904;52.208;21.192;2024-02-16T11:10:37;101065.70;;;12.04;59.00
39177;BME280;24904;52.208;21.192;2024-02-16T11:15:40;101064.48;;;12.12;58.77
39177;BME280;24904;52.208;21.192;2024-02-16T11:20:43;101056.86;;;12.16;58.76
39177;BME280;24904;52.208;21.192;2024-02-16T11:25:51;101054.16;;;12.20;58.88
39177;BME280;24904;52.208;21.192;2024-02-16T11:30:54;101050.64;;;12.26;58.91
39177;BME280;24904;52.208;21.192;2024-02-16T11:35:58;101044.89;;;12.31;58.99
39177;BME280;24904;52.208;21.192;2024-02-16T11:41:03;101034.70;;;12.39;59.27
39177;BME280;24904;52.208;21.192;2024-02-16T11:46:14;101026.30;;;12.45;59.36
39177;BME280;24904;52.208;21.192;2024-02-16T11:51:17;101022.05;;;12.52;59.41
39177;BME280;24904;52.208;21.192;2024-02-16T11:56:24;101016.56;;;12.60;59.60
39177;BME280;24904;52.208;21.192;2024-02-16T12:01:28;101009.05;;;12.68;59.80
39177;BME280;24904;52.208;21.192;2024-02-16T12:06:31;101004.27;;;12.76;59.68
39177;BME280;24904;52.208;21.192;2024-02-16T12:11:36;101002.16;;;12.84;59.86
39177;BME280;24904;52.208;21.192;2024-02-16T12:16:40;101000.17;;;12.91;59.52
39177;BME280;24904;52.208;21.192;2024-02-16T12:21:43;100991.55;;;12.95;59.54
39177;BME280;24904;52.208;21.192;2024-02-16T12:26:46;100981.68;;;12.97;59.72
39177;BME280;24904;52.208;21.192;2024-02-16T12:31:49;100983.05;;;13.01;59.57
39177;BME280;24904;52.208;21.192;2024-02-16T12:36:52;100980.44;;;12.99;59.28
39177;BME280;24904;52.208;21.192;2024-02-16T12:41:55;100976.48;;;12.98;59.41
39177;BME280;24904;52.208;21.192;2024-02-16T12:46:58;100972.86;;;12.97;59.49
39177;BME280;24904;52.208;21.192;2024-02-16T12:52:01;100978.08;;;12.93;59.26
39177;BME280;24904;52.208;21.192;2024-02-16T12:57:04;100974.30;;;12.86;59.15
39177;BME280;24904;52.208;21.192;2024-02-16T13:02:15;100974.16;;;12.80;59.02
39177;BME280;24904;52.208;21.192;2024-02-16T13:07:18;100973.87;;;12.77;59.20
39177;BME280;24904;52.208;21.192;2024-02-16T13:12:57;100972.02;;;12.81;59.28
39177;BME280;24904;52.208;21.192;2024-02-16T13:18:00;100965.30;;;12.78;59.31
39177;BME280;24904;52.208;21.192;2024-02-16T13:23:03;100964.62;;;12.80;59.46
39177;BME280;24904;52.208;21.192;2024-02-16T13:28:06;100955.11;;;12.81;59.24
39177;BME280;24904;52.208;21.192;2024-02-16T13:33:09;100947.27;;;12.77;59.12
39177;BME280;24904;52.208;21.192;2024-02-16T13:38:12;100946.22;;;12.74;59.14
39177;BME280;24904;52.208;21.192;2024-02-16T13:43:16;100939.33;;;12.71;59.06
39177;BME280;24904;52.208;21.192;2024-02-16T13:48:20;100939.01;;;12.70;59.08
39177;BME280;24904;52.208;21.192;2024-02-16T13:53:24;100935.39;;;12.70;59.05
39177;BME280;24904;52.208;21.192;2024-02-16T13:58:27;100927.59;;;12.69;58.97
39177;BME280;24904;52.208;21.192;2024-02-16T14:03:31;100927.20;;;12.69;59.01
39177;BME280;24904;52.208;21.192;2024-02-16T14:08:35;100923.34;;;12.71;58.95
39177;BME280;24904;52.208;21.192;2024-02-16T14:13:38;100922.96;;;12.71;58.87
39177;BME280;24904;52.208;21.192;2024-02-16T14:18:42;100929.36;;;12.67;58.73
39177;BME280;24904;52.208;21.192;2024-02-16T14:23:45;100919.07;;;12.62;58.62
39177;BME280;24904;52.208;21.192;2024-02-16T14:28:48;100918.68;;;12.56;58.55
39177;BME280;24904;52.208;21.192;2024-02-16T14:33:51;100911.34;;;12.48;58.61
39177;BME280;24904;52.208;21.192;2024-02-16T14:38:54;100909.89;;;12.43;58.77
39177;BME280;24904;52.208;21.192;2024-02-16T14:43:57;100914.29;;;12.38;58.68
39177;BME280;24904;52.208;21.192;2024-02-16T14:49:00;100915.23;;;12.32;58.65
39177;BME280;24904;52.208;21.192;2024-02-16T14:54:03;100916.38;;;12.27;58.68
39177;BME280;24904;52.208;21.192;2024-02-16T14:59:06;100910.55;;;12.22;58.77
39177;BME280;24904;52.208;21.192;2024-02-16T15:04:09;100900.32;;;12.14;58.59
39177;BME280;24904;52.208;21.192;2024-02-16T15:09:12;100902.25;;;12.07;58.66
39177;BME280;24904;52.208;21.192;2024-02-16T15:14:15;100900.60;;;12.01;58.74
39177;BME280;24904;52.208;21.192;2024-02-16T15:19:18;100893.80;;;11.93;58.84
39177;BME280;24904;52.208;21.192;2024-02-16T15:24:21;100892.69;;;11.85;58.84
39177;BME280;24904;52.208;21.192;2024-02-16T15:29:25;100891.52;;;11.77;58.85
39177;BME280;24904;52.208;21.192;2024-02-16T15:34:29;100893.42;;;11.68;58.85
39177;BME280;24904;52.208;21.192;2024-02-16T15:39:32;100888.29;;;11.61;58.86
39177;BME280;24904;52.208;21.192;2024-02-16T15:44:35;100888.31;;;11.53;59.09
39177;BME280;24904;52.208;21.192;2024-02-16T15:49:39;100884.50;;;11.44;59.11
39177;BME280;24904;52.208;21.192;2024-02-16T15:54:42;100885.35;;;11.35;59.22
39177;BME280;24904;52.208;21.192;2024-02-16T15:59:46;100886.25;;;11.26;59.37
39177;BME280;24904;52.208;21.192;2024-02-16T16:04:49;100890.12;;;11.19;59.52
39177;BME280;24904;52.208;21.192;2024-02-16T16:09:54;100892.52;;;11.12;59.59
39177;BME280;24904;52.208;21.192;2024-02-16T16:14:58;100892.20;;;11.02;59.63
39177;BME280;24904;52.208;21.192;2024-02-16T16:20:01;100889.86;;;10.95;59.77
39177;BME280;24904;52.208;21.192;2024-02-16T16:25:07;100888.67;;;10.90;59.92
39177;BME280;24904;52.208;21.192;2024-02-16T16:30:11;100893.47;;;10.82;60.04
39177;BME280;24904;52.208;21.192;2024-02-16T16:35:15;100894.64;;;10.77;60.20
39177;BME280;24904;52.208;21.192;2024-02-16T16:40:18;100897.11;;;10.70;60.54
39177;BME280;24904;52.208;21.192;2024-02-16T16:45:21;100897.92;;;10.64;60.43
39177;BME280;24904;52.208;21.192;2024-02-16T16:50:26;100892.41;;;10.59;60.74
39177;BME280;24904;52.208;21.192;2024-02-16T16:55:29;100892.40;;;10.55;60.64
39177;BME280;24904;52.208;21.192;2024-02-16T17:00:32;100893.60;;;10.52;60.82
39177;BME280;24904;52.208;21.192;2024-02-16T17:05:35;100896.50;;;10.47;60.89
39177;BME280;24904;52.208;21.192;2024-02-16T17:10:38;100893.33;;;10.42;60.93
39177;BME280;24904;52.208;21.192;2024-02-16T17:15:41;100887.08;;;10.39;61.03
39177;BME280;24904;52.208;21.192;2024-02-16T17:20:46;100892.69;;;10.37;61.11
39177;BME280;24904;52.208;21.192;2024-02-16T17:25:50;100888.63;;;10.34;61.14
39177;BME280;24904;52.208;21.192;2024-02-16T17:30:53;100890.20;;;10.30;61.24
39177;BME280;24904;52.208;21.192;2024-02-16T17:35:56;100888.92;;;10.26;61.16
39177;BME280;24904;52.208;21.192;2024-02-16T17:40:59;100900.92;;;10.22;61.35
39177;BME280;24904;52.208;21.192;2024-02-16T17:46:20;100910.17;;;10.19;61.43
39177;BME280;24904;52.208;21.192;2024-02-16T17:51:26;100909.55;;;10.16;61.56
39177;BME280;24904;52.208;21.192;2024-02-16T17:56:33;100911.08;;;10.14;61.59
39177;BME280;24904;52.208;21.192;2024-02-16T18:01:36;100911.53;;;10.14;61.67
39177;BME280;24904;52.208;21.192;2024-02-16T18:06:39;100911.52;;;10.09;61.74
39177;BME280;24904;52.208;21.192;2024-02-16T18:20:40;100911.70;;;10.02;62.05
39177;BME280;24904;52.208;21.192;2024-02-16T18:25:44;100912.80;;;9.97;62.19
39177;BME280;24904;52.208;21.192;2024-02-16T18:30:47;100914.30;;;9.93;62.27
39177;BME280;24904;52.208;21.192;2024-02-16T18:35:50;100916.90;;;9.87;62.37
39177;BME280;24904;52.208;21.192;2024-02-16T18:40:54;100919.60;;;9.82;62.64
39177;BME280;24904;52.208;21.192;2024-02-16T18:45:57;100920.73;;;9.76;62.63
39177;BME280;24904;52.208;21.192;2024-02-16T18:51:00;100917.85;;;9.70;62.89
39177;BME280;24904;52.208;21.192;2024-02-16T18:56:04;100917.67;;;9.66;63.07
39177;BME280;24904;52.208;21.192;2024-02-16T19:01:07;100916.27;;;9.62;63.12
39177;BME280;24904;52.208;21.192;2024-02-16T19:06:10;100912.05;;;9.57;63.41
39177;BME280;24904;52.208;21.192;2024-02-16T19:11:13;100918.90;;;9.56;63.34
39177;BME280;24904;52.208;21.192;2024-02-16T19:16:16;100911.46;;;9.52;63.57
39177;BME280;24904;52.208;21.192;2024-02-16T19:21:20;100910.91;;;9.48;63.47
39177;BME280;24904;52.208;21.192;2024-02-16T19:26:23;100907.91;;;9.43;63.73
39177;BME280;24904;52.208;21.192;2024-02-16T19:31:28;100911.66;;;9.41;63.95
39177;BME280;24904;52.208;21.192;2024-02-16T19:36:31;100911.42;;;9.37;64.03
39177;BME280;24904;52.208;21.192;2024-02-16T19:41:34;100901.91;;;9.35;63.99
39177;BME280;24904;52.208;21.192;2024-02-16T19:46:37;100903.92;;;9.34;64.19
39177;BME280;24904;52.208;21.192;2024-02-16T19:51:40;100905.44;;;9.32;64.34
39177;BME280;24904;52.208;21.192;2024-02-16T19:56:43;100899.36;;;9.28;64.27
39177;BME280;24904;52.208;21.192;2024-02-16T20:01:46;100900.44;;;9.24;64.36
39177;BME280;24904;52.208;21.192;2024-02-16T20:06:49;100904.59;;;9.20;64.43
39177;BME280;24904;52.208;21.192;2024-02-16T20:11:53;100905.76;;;9.14;64.49
39177;BME280;24904;52.208;21.192;2024-02-16T20:16:57;100903.95;;;9.11;64.60
39177;BME280;24904;52.208;21.192;2024-02-16T20:22:00;100906.66;;;9.06;64.85
39177;BME280;24904;52.208;21.192;2024-02-16T20:27:03;100905.98;;;9.05;64.92
39177;BME280;24904;52.208;21.192;2024-02-16T20:32:07;100898.54;;;9.04;65.26
39177;BME280;24904;52.208;21.192;2024-02-16T20:37:10;100897.70;;;8.99;64.85
39177;BME280;24904;52.208;21.192;2024-02-16T20:42:13;100891.45;;;8.97;65.18
39177;BME280;24904;52.208;21.192;2024-02-16T20:47:16;100891.92;;;8.94;65.44
39177;BME280;24904;52.208;21.192;2024-02-16T20:52:19;100888.01;;;8.90;65.50
39177;BME280;24904;52.208;21.192;2024-02-16T20:57:23;100887.11;;;8.86;65.64
39177;BME280;24904;52.208;21.192;2024-02-16T21:02:26;100881.68;;;8.82;65.70
39177;BME280;24904;52.208;21.192;2024-02-16T21:07:29;100876.56;;;8.80;65.90
39177;BME280;24904;52.208;21.192;2024-02-16T21:12:33;100870.57;;;8.78;66.04
39177;BME280;24904;52.208;21.192;2024-02-16T21:17:36;100868.89;;;8.74;65.95
39177;BME280;24904;52.208;21.192;2024-02-16T21:22:39;100869.82;;;8.68;65.97
39177;BME280;24904;52.208;21.192;2024-02-16T21:27:42;100862.58;;;8.67;66.30
39177;BME280;24904;52.208;21.192;2024-02-16T21:32:45;100857.77;;;8.64;66.35
39177;BME280;24904;52.208;21.192;2024-02-16T21:37:48;100856.44;;;8.59;66.42
39177;BME280;24904;52.208;21.192;2024-02-16T21:42:51;100859.48;;;8.53;66.46
39177;BME280;24904;52.208;21.192;2024-02-16T21:47:54;100860.77;;;8.48;66.64
39177;BME280;24904;52.208;21.192;2024-02-16T21:52:58;100856.30;;;8.45;66.60
39177;BME280;24904;52.208;21.192;2024-02-16T21:58:01;100851.25;;;8.41;66.83
39177;BME280;24904;52.208;21.192;2024-02-16T22:03:04;100853.48;;;8.37;66.87
39177;BME280;24904;52.208;21.192;2024-02-16T22:08:08;100848.34;;;8.32;67.13
39177;BME280;24904;52.208;21.192;2024-02-16T22:13:11;100840.64;;;8.31;67.07
39177;BME280;24904;52.208;21.192;2024-02-16T22:18:14;100840.02;;;8.26;67.09
39177;BME280;24904;52.208;21.192;2024-02-16T22:23:17;100833.23;;;8.23;67.27
39177;BME280;24904;52.208;21.192;2024-02-16T22:28:21;100837.13;;;8.17;67.51
39177;BME280;24904;52.208;21.192;2024-02-16T22:33:26;100837.06;;;8.15;67.45
39177;BME280;24904;52.208;21.192;2024-02-16T22:38:29;100840.73;;;8.10;67.45
39177;BME280;24904;52.208;21.192;2024-02-16T22:43:34;100840.61;;;8.08;67.55
39177;BME280;24904;52.208;21.192;2024-02-16T22:48:37;100839.66;;;8.02;67.73
39177;BME280;24904;52.208;21.192;2024-02-16T22:53:56;100836.88;;;8.00;67.88
39177;BME280;24904;52.208;21.192;2024-02-16T22:59:00;100835.84;;;7.97;67.80
39177;BME280;24904;52.208;21.192;2024-02-16T23:04:03;100834.83;;;7.94;67.77
39177;BME280;24904;52.208;21.192;2024-02-16T23:09:09;100825.90;;;7.90;67.95
39177;BME280;24904;52.208;21.192;2024-02-16T23:14:14;100821.51;;;7.85;68.04
39177;BME280;24904;52.208;21.192;2024-02-16T23:19:17;100818.31;;;7.77;68.14
39177;BME280;24904;52.208;21.192;2024-02-16T23:24:20;100814.36;;;7.70;68.42
39177;BME280;24904;52.208;21.192;2024-02-16T23:29:24;100811.60;;;7.67;68.42
39177;BME280;24904;52.208;21.192;2024-02-16T23:34:27;100804.58;;;7.64;68.69
39177;BME280;24904;52.208;21.192;2024-02-16T23:39:30;100803.55;;;7.59;68.83
39177;BME280;24904;52.208;21.192;2024-02-16T23:44:33;100800.96;;;7.56;68.81
39177;BME280;24904;52.208;21.192;2024-02-16T23:49:36;100801.58;;;7.50;68.79
39177;BME280;24904;52.208;21.192;2024-02-16T23:54:40;100794.42;;;7.46;69.05
39177;BME280;24904;52.208;21.192;2024-02-16T23:59:43;100793.70;;;7.40;69.15
